createdAt,value
2019-05-12T00:00:59.769Z,100989.09
2019-05-12T00:03:27.701Z,100988.16
2019-05-12T00:05:57.801Z,100995.42
2019-05-12T00:08:27.570Z,100996.03
2019-05-12T00:10:54.760Z,101004.02
2019-05-12T00:13:22.172Z,101010.02
2019-05-12T00:15:49.539Z,101007.31
2019-05-12T00:18:18.012Z,100952.50
2019-05-12T00:20:47.649Z,101007.41
2019-05-12T00:23:24.936Z,101017.06
2019-05-12T00:25:47.891Z,101017.23
2019-05-12T00:28:14.895Z,101023.19
2019-05-12T00:30:48.567Z,101026.67
2019-05-12T00:33:17.822Z,100935.72
2019-05-12T00:35:44.997Z,101045.06
2019-05-12T00:38:12.446Z,101045.53
2019-05-12T00:40:39.938Z,101044.31
2019-05-12T00:43:08.702Z,101048.26
2019-05-12T00:45:38.921Z,101058.20
2019-05-12T00:48:09.559Z,101070.30
2019-05-12T00:50:39.623Z,101069.52
2019-05-12T00:53:09.201Z,101079.17
2019-05-12T00:55:38.117Z,101078.20
2019-05-12T00:58:08.340Z,101074.69
2019-05-12T01:00:40.711Z,101073.53
2019-05-12T01:03:08.765Z,101072.25
2019-05-12T01:05:38.355Z,100978.81
2019-05-12T01:08:09.060Z,101084.70
2019-05-12T01:10:35.815Z,101097.28
2019-05-12T01:13:03.238Z,101096.00
2019-05-12T01:15:30.572Z,101096.55
2019-05-12T01:17:58.599Z,101097.20
2019-05-12T01:20:28.259Z,101104.54
2019-05-12T01:22:58.021Z,101105.56
2019-05-12T01:25:25.993Z,101117.20
2019-05-12T01:27:53.328Z,101115.67
2019-05-12T01:30:21.084Z,101121.15
2019-05-12T01:32:53.723Z,101129.43
2019-05-12T01:35:21.438Z,101126.07
2019-05-12T01:37:49.024Z,101133.63
2019-05-12T01:43:48.781Z,101144.34
2019-05-12T01:46:19.119Z,101145.23
2019-05-12T01:48:52.283Z,101144.08
2019-05-12T01:51:20.302Z,101148.84
2019-05-12T01:53:48.252Z,101160.22
2019-05-12T01:56:18.285Z,101159.76
2019-05-12T01:58:48.282Z,101155.89
2019-05-12T02:01:15.302Z,101156.19
2019-05-12T02:03:43.013Z,101166.94
2019-05-12T02:06:12.681Z,101064.20
2019-05-12T02:08:48.714Z,101164.17
2019-05-12T02:11:37.836Z,101176.41
2019-05-12T02:14:06.355Z,101178.95
2019-05-12T02:16:34.388Z,101174.45
2019-05-12T02:19:01.932Z,101175.21
2019-05-12T02:21:30.754Z,101043.91
2019-05-12T02:23:58.407Z,101178.96
2019-05-12T02:26:25.999Z,101172.63
2019-05-12T02:28:53.418Z,101178.28
2019-05-12T02:31:21.047Z,101181.59
2019-05-12T02:33:48.483Z,101069.89
2019-05-12T02:36:15.770Z,101187.08
2019-05-12T02:38:45.260Z,101043.08
2019-05-12T02:41:15.491Z,101194.51
2019-05-12T02:44:14.898Z,101184.82
2019-05-12T02:46:44.673Z,101195.84
2019-05-12T02:49:15.543Z,101201.97
2019-05-12T02:52:05.106Z,101207.29
2019-05-12T02:54:50.807Z,101209.57
2019-05-12T02:57:14.494Z,101210.89
2019-05-12T03:00:10.114Z,101211.59
2019-05-12T03:02:48.176Z,101216.20
2019-05-12T03:09:55.059Z,101227.56
2019-05-12T03:12:25.801Z,101231.61
2019-05-12T03:15:05.809Z,101242.78
2019-05-12T03:18:05.614Z,101242.65
2019-05-12T03:21:05.602Z,101246.58
2019-05-12T03:28:35.540Z,101256.67
2019-05-12T03:32:30.144Z,101268.77
2019-05-12T03:34:58.526Z,101275.47
2019-05-12T03:41:08.216Z,101278.95
2019-05-12T03:43:35.632Z,101290.22
2019-05-12T03:46:05.527Z,101292.89
2019-05-12T03:48:34.920Z,101292.56
2019-05-12T03:51:05.457Z,101294.14
2019-05-12T03:53:38.594Z,101307.06
2019-05-12T03:56:05.886Z,101303.52
2019-05-12T03:58:34.696Z,101312.56
2019-05-12T04:01:05.609Z,101317.16
2019-05-12T04:03:34.633Z,101326.91
2019-05-12T04:06:04.746Z,101323.02
2019-05-12T04:08:34.473Z,101331.83
2019-05-12T04:11:00.892Z,101340.38
2019-05-12T04:13:28.221Z,101343.50
2019-05-12T04:15:55.877Z,101340.45
2019-05-12T04:18:24.743Z,101340.48
2019-05-12T04:20:54.520Z,101354.09
2019-05-12T04:23:24.523Z,101345.17
2019-05-12T04:25:56.996Z,101353.91
2019-05-12T04:28:20.021Z,101353.20
2019-05-12T04:30:47.321Z,101355.24
2019-05-12T04:33:15.486Z,101356.45
2019-05-12T04:35:45.117Z,101358.10
2019-05-12T04:38:14.784Z,101355.98
2019-05-12T04:40:44.999Z,101362.98
2019-05-12T04:43:14.314Z,101375.72
2019-05-12T04:45:40.211Z,101373.14
2019-05-12T04:48:07.621Z,101373.30
2019-05-12T04:50:36.093Z,101374.34
2019-05-12T04:53:05.900Z,101376.45
2019-05-12T04:55:35.565Z,101371.31
2019-05-12T04:58:04.394Z,101380.78
2019-05-12T05:00:34.836Z,101381.75
2019-05-12T05:03:01.417Z,101382.28
2019-05-12T05:05:29.506Z,101391.27
2019-05-12T05:07:56.857Z,101398.02
2019-05-12T05:10:24.993Z,101401.61
2019-05-12T05:12:54.090Z,101396.23
2019-05-12T05:15:24.737Z,101402.55
2019-05-12T05:17:50.943Z,101412.05
2019-05-12T05:20:18.218Z,101419.38
2019-05-12T05:22:45.472Z,101425.77
2019-05-12T05:25:14.413Z,101426.15
2019-05-12T05:27:43.779Z,101431.38
2019-05-12T05:30:13.704Z,101438.49
2019-05-12T05:32:40.473Z,101439.09
2019-05-12T05:35:07.950Z,101442.70
2019-05-12T05:37:36.918Z,101442.55
2019-05-12T05:40:04.777Z,101446.02
2019-05-12T05:42:35.528Z,101448.16
2019-05-12T05:45:04.770Z,101459.66
2019-05-12T05:47:33.605Z,101457.23
2019-05-12T05:50:01.334Z,101460.83
2019-05-12T05:52:33.318Z,101469.42
2019-05-12T05:54:59.757Z,101461.88
2019-05-12T05:57:29.746Z,101466.96
2019-05-12T05:59:56.294Z,101472.78
2019-05-12T06:02:31.847Z,101476.63
2019-05-12T06:04:56.220Z,101464.45
2019-05-12T06:07:25.506Z,101471.86
2019-05-12T06:09:53.567Z,101470.84
2019-05-12T06:12:20.620Z,101479.81
2019-05-12T06:14:54.337Z,101479.49
2019-05-12T06:17:17.070Z,101479.05
2019-05-12T06:19:44.348Z,101485.77
2019-05-12T06:22:16.392Z,101485.97
2019-05-12T06:24:40.922Z,101488.37
2019-05-12T06:27:15.168Z,101484.06
2019-05-12T06:29:37.438Z,101488.39
2019-05-12T06:32:09.280Z,101488.01
2019-05-12T06:34:34.955Z,101495.53
2019-05-12T06:37:11.413Z,101497.82
2019-05-12T06:39:31.517Z,101497.92
2019-05-12T06:42:11.557Z,101506.19
2019-05-12T06:44:27.923Z,101509.55
2019-05-12T06:47:02.255Z,101517.45
2019-05-12T06:49:24.746Z,101521.62
2019-05-12T06:51:53.712Z,101526.20
2019-05-12T06:54:24.594Z,101521.41
2019-05-12T06:56:58.833Z,101530.04
2019-05-12T06:59:23.745Z,101527.25
2019-05-12T07:01:56.012Z,101526.55
2019-05-12T07:04:23.406Z,101530.81
2019-05-12T07:06:54.455Z,101536.03
2019-05-12T07:09:24.982Z,101539.59
2019-05-12T07:11:58.847Z,101544.08
2019-05-12T07:14:22.676Z,101549.81
2019-05-12T07:16:53.367Z,101558.30
2019-05-12T07:19:22.664Z,101554.75
2019-05-12T07:21:50.784Z,101548.19
2019-05-12T07:24:18.742Z,101558.27
2019-05-12T07:26:48.023Z,101560.39
2019-05-12T07:29:15.269Z,101567.03
2019-05-12T07:31:44.138Z,101566.74
2019-05-12T07:34:13.567Z,101561.56
2019-05-12T07:36:44.295Z,101571.98
2019-05-12T07:39:13.596Z,101570.31
2019-05-12T07:41:47.760Z,101573.95
2019-05-12T07:44:10.105Z,101572.30
2019-05-12T07:46:39.638Z,101571.08
2019-05-12T07:49:06.537Z,101566.70
2019-05-12T07:51:38.847Z,101580.47
2019-05-12T07:54:04.106Z,101586.67
2019-05-12T07:56:33.513Z,101576.61
2019-05-12T07:59:00.791Z,101583.66
2019-05-12T08:01:28.050Z,101577.52
2019-05-12T08:03:59.347Z,101574.45
2019-05-12T08:06:24.769Z,101570.44
2019-05-12T08:08:58.169Z,101578.86
2019-05-12T08:11:23.256Z,101570.67
2019-05-12T08:13:50.601Z,101579.64
2019-05-12T08:16:19.540Z,101586.34
2019-05-12T08:18:47.481Z,101578.66
2019-05-12T08:21:14.744Z,101586.87
2019-05-12T08:23:44.255Z,101583.27
2019-05-12T08:26:18.369Z,101597.21
2019-05-12T08:28:44.184Z,101595.41
2019-05-12T08:31:13.979Z,101605.75
2019-05-12T08:33:40.831Z,101601.53
2019-05-12T08:36:15.516Z,101605.13
2019-05-12T08:38:37.615Z,101591.75
2019-05-12T08:41:04.906Z,101589.87
2019-05-12T08:43:34.351Z,101588.78
2019-05-12T08:46:07.008Z,101593.73
2019-05-12T08:48:30.896Z,101596.71
2019-05-12T08:50:58.426Z,101592.39
2019-05-12T08:53:26.194Z,101595.18
2019-05-12T08:55:53.971Z,101589.75
2019-05-12T08:58:31.583Z,101596.57
2019-05-12T09:00:50.759Z,101589.36
2019-05-12T09:03:20.529Z,101597.91
2019-05-12T09:05:47.528Z,101608.02
2019-05-12T09:08:14.943Z,101612.39
2019-05-12T09:10:44.981Z,101618.54
2019-05-12T09:13:11.434Z,101621.48
2019-05-12T09:15:38.901Z,101618.03
2019-05-12T09:18:06.227Z,101616.19
2019-05-12T09:20:39.959Z,101604.24
2019-05-12T09:23:04.916Z,101614.73
2019-05-12T09:25:34.113Z,101614.56
2019-05-12T09:28:03.599Z,101606.61
2019-05-12T09:30:30.773Z,101616.27
2019-05-12T09:32:58.089Z,101616.37
2019-05-12T09:35:28.583Z,101614.68
2019-05-12T09:37:55.019Z,101613.85
2019-05-12T09:40:24.663Z,101614.89
2019-05-12T09:42:53.339Z,101616.73
2019-05-12T09:45:21.112Z,101612.21
2019-05-12T09:47:48.394Z,101612.97
2019-05-12T09:50:20.100Z,101624.68
2019-05-12T09:52:44.948Z,101630.06
2019-05-12T09:55:14.623Z,101624.56
2019-05-12T09:57:42.993Z,101632.28
2019-05-12T10:00:13.595Z,101631.33
2019-05-12T10:02:40.347Z,101638.91
2019-05-12T10:05:07.754Z,101640.75
2019-05-12T10:07:36.022Z,101643.36
2019-05-12T10:10:04.017Z,101642.42
2019-05-12T10:12:38.779Z,101640.00
2019-05-12T10:15:04.099Z,101640.62
2019-05-12T10:17:31.149Z,101635.39
2019-05-12T10:19:58.534Z,101638.70
2019-05-12T10:22:37.765Z,101638.86
2019-05-12T10:25:05.469Z,101649.77
2019-05-12T10:27:34.559Z,101653.47
2019-05-12T10:30:03.179Z,101655.17
2019-05-12T10:32:34.166Z,101656.34
2019-05-12T10:35:01.491Z,101641.49
2019-05-12T10:37:29.522Z,101640.44
2019-05-12T10:39:56.871Z,101637.57
2019-05-12T10:42:24.396Z,101643.09
2019-05-12T10:44:54.426Z,101648.88
2019-05-12T10:47:20.874Z,101663.09
2019-05-12T10:49:48.183Z,101656.06
2019-05-12T10:52:15.593Z,101669.53
2019-05-12T10:54:43.423Z,101667.27
2019-05-12T10:57:10.960Z,101668.25
2019-05-12T10:59:45.151Z,101660.65
2019-05-12T11:02:09.176Z,101658.39
2019-05-12T11:04:41.227Z,101656.26
2019-05-12T11:07:09.653Z,101664.03
2019-05-12T11:09:37.492Z,101668.67
2019-05-12T11:12:04.912Z,101663.62
2019-05-12T11:14:34.172Z,101665.21
2019-05-12T11:17:07.920Z,101671.07
2019-05-12T11:19:34.158Z,101669.74
2019-05-12T11:22:03.670Z,101676.55
2019-05-12T11:24:33.528Z,101658.47
2019-05-12T11:27:00.287Z,101654.44
2019-05-12T11:29:27.595Z,101658.42
2019-05-12T11:31:54.913Z,101661.27
2019-05-12T11:34:22.280Z,101657.71
2019-05-12T11:36:49.575Z,101666.85
2019-05-12T11:39:16.857Z,101664.62
2019-05-12T11:41:44.489Z,101659.89
2019-05-12T11:44:13.192Z,101652.70
2019-05-12T11:46:40.833Z,101662.64
2019-05-12T11:49:09.622Z,101661.97
2019-05-12T11:51:37.110Z,101665.00
2019-05-12T11:54:08.974Z,101658.27
2019-05-12T11:56:33.766Z,101661.15
2019-05-12T11:59:01.097Z,101666.28
2019-05-12T12:01:29.072Z,101674.01
2019-05-12T12:03:56.462Z,101662.59
2019-05-12T12:06:24.135Z,101673.30
2019-05-12T12:08:53.536Z,101655.88
2019-05-12T12:11:27.155Z,101663.23
2019-05-12T12:13:53.401Z,101657.11
2019-05-12T12:16:20.283Z,101653.31
2019-05-12T12:18:52.100Z,101654.98
2019-05-12T12:21:16.690Z,101655.83
2019-05-12T12:23:48.798Z,101645.29
2019-05-12T12:26:28.263Z,101655.92
2019-05-12T12:28:53.814Z,101642.89
2019-05-12T12:31:21.150Z,101659.12
2019-05-12T12:33:48.492Z,101658.52
2019-05-12T12:36:15.856Z,101674.14
2019-05-12T12:38:44.037Z,101670.41
2019-05-12T12:41:13.199Z,101673.72
2019-05-12T12:43:40.649Z,101685.56
2019-05-12T12:46:21.450Z,101689.83
2019-05-12T12:48:46.470Z,101693.01
2019-05-12T12:51:17.303Z,101699.23
2019-05-12T12:53:43.791Z,101702.18
2019-05-12T12:56:16.137Z,101704.13
2019-05-12T12:58:40.478Z,101713.19
2019-05-12T13:01:07.879Z,101715.88
2019-05-12T13:03:35.246Z,101714.36
2019-05-12T13:06:04.755Z,101709.70
2019-05-12T13:08:34.099Z,101709.00
2019-05-12T13:11:01.154Z,101703.27
2019-05-12T13:13:28.406Z,101700.80
2019-05-12T13:15:55.693Z,101698.97
2019-05-12T13:18:30.212Z,101697.30
2019-05-12T13:20:53.987Z,101705.02
2019-05-12T13:23:34.754Z,101711.91
2019-05-12T13:25:52.493Z,101711.39
2019-05-12T13:28:22.749Z,101716.47
2019-05-12T13:30:49.741Z,101718.95
2019-05-12T13:33:18.421Z,101732.28
2019-05-12T13:35:50.236Z,101733.66
2019-05-12T13:38:14.969Z,101733.00
2019-05-12T13:40:44.094Z,101740.19
2019-05-12T13:43:15.577Z,101746.15
2019-05-12T13:45:43.857Z,101745.61
2019-05-12T13:48:15.806Z,101758.05
2019-05-12T13:50:43.302Z,101751.44
2019-05-12T13:53:11.016Z,101752.88
2019-05-12T13:55:39.299Z,101758.66
2019-05-12T13:58:07.884Z,101759.25
2019-05-12T14:00:35.450Z,101762.68
2019-05-12T14:03:08.186Z,101758.86
2019-05-12T14:05:32.540Z,101768.84
2019-05-12T14:07:59.839Z,101766.95
2019-05-12T14:10:27.508Z,101771.80
2019-05-12T14:12:55.228Z,101779.56
2019-05-12T14:15:24.859Z,101769.85
2019-05-12T14:17:54.042Z,101785.16
2019-05-12T14:20:21.136Z,101778.29
2019-05-12T14:22:49.538Z,101782.30
2019-05-12T14:25:20.933Z,101788.44
2019-05-12T14:27:46.151Z,101784.42
2019-05-12T14:30:14.711Z,101787.83
2019-05-12T14:32:44.014Z,101782.67
2019-05-12T14:35:11.872Z,101782.77
2019-05-12T14:37:40.464Z,101792.00
2019-05-12T14:40:08.530Z,101786.41
2019-05-12T14:42:39.693Z,101789.13
2019-05-12T14:45:05.394Z,101785.13
2019-05-12T14:47:34.074Z,101782.77
2019-05-12T14:50:03.762Z,101778.70
2019-05-12T14:52:33.332Z,101750.97
2019-05-12T14:55:03.414Z,101782.67
2019-05-12T14:57:37.411Z,101773.78
2019-05-12T15:00:00.198Z,101775.06
2019-05-12T15:02:29.401Z,101776.55
2019-05-12T15:05:00.115Z,101783.30
2019-05-12T15:07:28.037Z,101783.92
2019-05-12T15:10:02.603Z,101781.86
2019-05-12T15:12:24.616Z,101787.83
2019-05-12T15:14:54.190Z,101782.22
2019-05-12T15:17:24.151Z,101788.56
2019-05-12T15:19:50.297Z,101792.85
2019-05-12T15:22:17.616Z,101798.88
2019-05-12T15:24:49.455Z,101808.62
2019-05-12T15:27:15.225Z,101812.50
2019-05-12T15:29:42.650Z,101815.22
2019-05-12T15:32:10.023Z,101819.86
2019-05-12T15:34:37.351Z,101825.04
2019-05-12T15:37:04.627Z,101824.36
2019-05-12T15:39:33.573Z,101825.14
2019-05-12T15:42:03.321Z,101823.13
2019-05-12T15:44:31.963Z,101825.84
2019-05-12T15:47:00.666Z,101820.96
2019-05-12T15:49:27.915Z,101819.61
2019-05-12T15:51:58.482Z,101825.33
2019-05-12T15:54:24.962Z,101822.63
2019-05-12T15:56:53.268Z,101826.87
2019-05-12T15:59:23.897Z,101823.70
2019-05-12T16:01:53.153Z,101823.24
2019-05-12T16:04:20.111Z,101818.56
2019-05-12T16:06:53.698Z,101821.25
2019-05-12T16:09:16.570Z,101820.12
2019-05-12T16:11:43.929Z,101817.78
2019-05-12T16:14:11.206Z,101817.47
2019-05-12T16:16:42.373Z,101817.84
2019-05-12T16:19:07.732Z,101816.30
2019-05-12T16:21:35.059Z,101818.16
2019-05-12T16:24:10.741Z,101816.02
2019-05-12T16:26:33.449Z,101815.30
2019-05-12T16:29:03.254Z,101816.22
2019-05-12T16:31:30.254Z,101806.98
2019-05-12T16:34:01.008Z,101803.91
2019-05-12T16:36:27.129Z,101802.83
2019-05-12T16:38:56.125Z,101806.80
2019-05-12T16:41:28.026Z,101803.72
2019-05-12T16:43:53.749Z,101809.70
2019-05-12T16:46:23.363Z,101824.33
2019-05-12T16:48:54.536Z,101824.05
2019-05-12T16:51:19.943Z,101833.69
2019-05-12T16:53:47.574Z,101835.91
2019-05-12T16:56:19.859Z,101834.14
2019-05-12T16:58:45.596Z,101842.27
2019-05-12T17:01:14.451Z,101849.71
2019-05-12T17:03:44.464Z,101842.27
2019-05-12T17:06:13.710Z,101843.61
2019-05-12T17:08:41.084Z,101850.91
2019-05-12T17:11:24.215Z,101853.16
2019-05-12T17:13:37.532Z,101856.89
2019-05-12T17:16:05.010Z,101858.51
2019-05-12T17:18:33.975Z,101858.66
2019-05-12T17:21:04.047Z,101864.84
2019-05-12T17:23:31.027Z,101859.61
2019-05-12T17:25:58.599Z,101858.26
2019-05-12T17:28:25.909Z,101858.47
2019-05-12T17:30:54.346Z,101860.53
2019-05-12T17:33:25.099Z,101869.30
2019-05-12T17:38:19.738Z,101872.38
2019-05-12T17:40:44.625Z,101871.89
2019-05-12T17:43:12.227Z,101874.52
2019-05-12T17:45:39.638Z,101877.50
2019-05-12T17:48:07.785Z,101864.50
2019-05-12T17:50:35.312Z,101888.78
2019-05-12T17:53:04.506Z,101887.08
2019-05-12T17:55:32.123Z,101889.19
2019-05-12T17:57:59.490Z,101862.52
2019-05-12T18:00:27.042Z,101895.78
2019-05-12T18:03:05.951Z,101901.06
2019-05-12T18:05:25.814Z,101909.55
2019-05-12T18:07:55.528Z,101906.67
2019-05-12T18:10:23.916Z,101920.12
2019-05-12T18:12:53.427Z,101927.83
2019-05-12T18:15:25.682Z,101934.98
2019-05-12T18:17:50.196Z,101931.51
2019-05-12T18:20:17.698Z,101929.53
2019-05-12T18:22:46.973Z,101939.11
2019-05-12T18:25:14.781Z,101937.19
2019-05-12T18:27:48.057Z,101950.95
2019-05-12T18:30:11.656Z,101952.20
2019-05-12T18:32:38.913Z,101956.56
2019-05-12T18:35:06.256Z,101960.89
2019-05-12T18:37:34.403Z,101960.38
2019-05-12T18:40:04.042Z,101962.47
2019-05-12T18:42:33.714Z,101974.73
2019-05-12T18:45:11.355Z,101972.69
2019-05-12T18:47:33.364Z,101976.01
2019-05-12T18:49:59.700Z,101981.64
2019-05-12T18:52:29.452Z,101987.33
2019-05-12T18:54:57.184Z,101996.27
2019-05-12T18:57:24.725Z,101987.06
2019-05-12T18:59:55.152Z,101994.14
2019-05-12T19:02:23.382Z,101995.14
2019-05-12T19:04:50.452Z,101992.53
2019-05-12T19:07:17.754Z,101999.20
2019-05-12T19:09:47.266Z,102001.34
2019-05-12T19:12:17.830Z,102004.27
2019-05-12T19:14:43.871Z,102003.55
2019-05-12T19:17:13.968Z,102006.47
2019-05-12T19:19:40.425Z,102015.02
2019-05-12T19:22:09.681Z,102018.99
2019-05-12T19:24:36.916Z,102023.92
2019-05-12T19:27:04.519Z,102026.41
2019-05-12T19:29:39.025Z,102030.59
2019-05-12T19:32:01.048Z,102033.68
2019-05-12T19:34:31.916Z,102032.78
2019-05-12T19:36:57.572Z,102034.14
2019-05-12T19:39:25.506Z,102044.03
2019-05-12T19:41:54.368Z,102045.30
2019-05-12T19:44:26.534Z,102041.91
2019-05-12T19:46:51.170Z,102051.70
2019-05-12T19:49:20.282Z,102053.66
2019-05-12T19:51:47.778Z,102054.25
2019-05-12T19:54:19.459Z,102061.00
2019-05-12T19:56:44.302Z,102067.30
2019-05-12T19:59:11.586Z,102068.63
2019-05-12T20:01:38.881Z,102073.44
2019-05-12T20:06:33.565Z,102070.22
2019-05-12T20:09:06.470Z,102086.08
2019-05-12T20:11:32.059Z,102080.59
2019-05-12T20:13:59.446Z,102085.28
2019-05-12T20:16:30.316Z,102090.06
2019-05-12T20:18:57.920Z,102087.87
2019-05-12T20:21:26.177Z,102093.28
2019-05-12T20:23:54.671Z,102092.50
2019-05-12T20:26:23.706Z,102096.66
2019-05-12T20:28:55.035Z,102095.53
2019-05-12T20:31:23.675Z,102101.89
2019-05-12T20:33:49.554Z,102102.44
2019-05-12T20:36:20.688Z,102100.64
2019-05-12T20:38:47.227Z,102108.00
2019-05-12T20:41:22.565Z,102106.66
2019-05-12T20:43:46.079Z,102116.08
2019-05-12T20:46:21.667Z,102116.70
2019-05-12T20:48:44.611Z,102124.55
2019-05-12T20:51:15.466Z,102122.96
2019-05-12T20:53:43.402Z,102134.42
2019-05-12T20:56:12.142Z,102129.77
2019-05-12T20:58:43.662Z,102135.58
2019-05-12T21:01:09.175Z,102142.68
2019-05-12T21:03:39.861Z,102138.84
2019-05-12T21:06:05.933Z,102139.73
2019-05-12T21:08:33.902Z,102146.30
2019-05-12T21:11:01.306Z,102148.11
2019-05-12T21:13:31.818Z,102148.74
2019-05-12T21:15:58.020Z,102156.05
2019-05-12T21:18:25.753Z,102158.33
2019-05-12T21:20:54.884Z,102156.08
2019-05-12T21:23:24.087Z,102160.17
2019-05-12T21:25:56.188Z,102171.53
2019-05-12T21:28:23.645Z,102159.10
2019-05-12T21:30:55.755Z,102154.94
2019-05-12T21:33:24.031Z,102162.28
2019-05-12T21:35:51.615Z,102160.62
2019-05-12T21:38:27.542Z,102171.88
2019-05-12T21:40:48.572Z,102162.71
2019-05-12T21:43:15.943Z,102158.50
2019-05-12T21:45:43.217Z,102161.53
2019-05-12T21:48:16.490Z,102171.02
2019-05-12T21:50:40.061Z,102167.44
2019-05-12T21:53:10.259Z,102174.22
2019-05-12T21:55:37.028Z,102172.91
2019-05-12T21:58:10.716Z,102178.55
2019-05-12T22:00:38.072Z,102182.69
2019-05-12T22:03:08.140Z,102190.33
2019-05-12T22:05:50.473Z,102188.49
2019-05-12T22:08:06.785Z,102196.18
2019-05-12T22:10:35.564Z,102196.08
2019-05-12T22:13:07.388Z,102192.95
2019-05-12T22:15:33.805Z,102201.45
2019-05-12T22:18:04.217Z,102195.22
2019-05-12T22:20:31.660Z,102203.22
2019-05-12T22:23:00.768Z,102201.58
2019-05-12T22:25:29.776Z,102204.47
2019-05-12T22:27:59.310Z,102209.34
2019-05-12T22:30:28.879Z,102211.98
2019-05-12T22:32:59.436Z,102216.33
2019-05-12T22:35:26.832Z,102084.36
2019-05-12T22:37:54.406Z,102212.07
2019-05-12T22:40:23.607Z,102220.02
2019-05-12T22:43:09.743Z,102225.73
2019-05-12T22:45:44.229Z,102230.05
2019-05-12T22:48:11.572Z,102232.00
